Terminal Aerodrome Forecast
Issued by NWS

Home | Current Version | Previous Version | Text Only | Print | Product List | Glossary On
Versions: 1 2 3 4 5 6 7 8 9 10 11 12 13 14 15 16
000
FTUS44 KHGX 180520
TAFUTS
TAF
KUTS 180520Z 1806/1906 18007KT P6SM SKC
     FM181000 21006KT P6SM BKN015
     FM181500 21006KT P6SM BKN025
     FM182100 19008KT P6SM SCT025
     FM190200 16003KT P6SM SKC=

USA.gov is the U.S. government's official web portal to all federal, state and local government web resources and services.